NCAR-RAP Real-Time Weather Data

Output produced by METARs form (17 September 2019  16:12 UTC)
found at http://weather.rap.ucar.edu/surface/
 
KMLU 171553Z 12004KT 10SM CLR 32/22 A3006 RMK AO2 SLP176 T03220222
KMLU 171453Z 09003KT 10SM CLR 30/23 A3005 RMK AO2 SLP175 T03000233 51008
KMLU 171353Z 04003KT 10SM CLR 27/23 A3005 RMK AO2 SLP173 T02720228
KMLU 171253Z 06003KT 10SM CLR 24/22 A3004 RMK AO2 SLP170 T02440222
KMLU 171153Z 05004KT 10SM CLR 22/21 A3003 RMK AO2 SLP167 T02170206 10233 20211 53012
KMLU 171053Z AUTO 00000KT 9SM CLR 22/21 A3001 RMK AO2 SLP162 T02170211
KMLU 170953Z AUTO 00000KT 10SM CLR 22/21 A3000 RMK AO2 SLP157 T02220206
KMLU 170853Z AUTO 00000KT 10SM CLR 22/21 A2999 RMK AO2 SLP155 T02220211 55002
KMLU 170753Z AUTO 00000KT 10SM CLR 23/21 A2999 RMK AO2 SLP154 T02280211
KMLU 170653Z AUTO 00000KT 10SM CLR 23/21 A3000 RMK AO2 SLP156 T02280211
KMLU 170553Z AUTO 00000KT 10SM CLR 23/22 A3000 RMK AO2 SLP157 T02330217 10333 20233 403720217 58001
KMLU 170453Z AUTO 00000KT 10SM CLR 24/22 A3000 RMK AO2 SLP158 T02390217
KMLU 170353Z AUTO 00000KT 10SM CLR 25/22 A3001 RMK AO2 SLP160 T02500217
KMLU 170253Z AUTO 00000KT 10SM CLR 27/21 A3000 RMK AO2 SLP157 T02720211 53014
KMLU 170053Z AUTO 00000KT 10SM CLR 29/21 A2997 RMK AO2 SLP146 T02890206
KMLU 162353Z AUTO VRB03KT 10SM OVC095 33/19 A2996 RMK AO2 SLP143 T03330189 10372 20322 55004
KMLU 162253Z AUTO VRB03KT 10SM CLR 35/19 A2996 RMK AO2 SLP142 T03500189
KMLU 162153Z AUTO 09007KT 10SM CLR 37/19 A2995 RMK AO2 SLP142 T03670189
KMLU 162053Z AUTO 12007KT 100V160 10SM CLR 37/18 A2997 RMK AO2 SLP147 T03670183 56025
KMLU 161953Z AUTO 07011G16KT 10SM FEW070 37/19 A2999 RMK AO2 SLP152 T03670194